createdAt,value
2019-03-22T00:00:33.056Z,80.08
2019-03-22T00:03:02.833Z,80.04
2019-03-22T00:05:32.574Z,79.81
2019-03-22T00:08:02.356Z,80.25
2019-03-22T00:10:32.112Z,80.70
2019-03-22T00:13:01.797Z,81.05
2019-03-22T00:15:31.528Z,81.16
2019-03-22T00:18:02.004Z,80.71
2019-03-22T00:20:31.828Z,80.83
2019-03-22T00:23:01.768Z,80.28
2019-03-22T00:25:31.511Z,80.34
2019-03-22T00:28:01.304Z,80.25
2019-03-22T00:30:30.981Z,80.50
2019-03-22T00:33:00.812Z,80.54
2019-03-22T00:35:30.539Z,80.35
2019-03-22T00:38:00.271Z,80.67
2019-03-22T00:40:30.255Z,80.88
2019-03-22T00:42:59.931Z,80.66
2019-03-22T00:45:29.644Z,81.13
2019-03-22T00:47:59.345Z,80.74
2019-03-22T00:50:29.046Z,80.98
2019-03-22T00:52:58.845Z,80.88
2019-03-22T00:55:28.767Z,80.82
2019-03-22T00:57:58.437Z,80.71
2019-03-22T01:00:28.331Z,80.79
2019-03-22T01:02:57.991Z,80.86
2019-03-22T01:05:27.781Z,80.99
2019-03-22T01:07:57.438Z,80.93
2019-03-22T01:10:27.192Z,80.90
2019-03-22T01:12:56.952Z,80.87
2019-03-22T01:15:26.669Z,80.85
2019-03-22T01:17:56.672Z,80.93
2019-03-22T01:20:26.387Z,81.02
2019-03-22T01:22:56.199Z,81.13
2019-03-22T01:25:25.909Z,80.77
2019-03-22T01:27:55.685Z,80.70
2019-03-22T01:30:25.408Z,80.85
2019-03-22T01:32:55.114Z,80.92
2019-03-22T01:35:24.795Z,80.73
2019-03-22T01:37:54.567Z,81.29
2019-03-22T01:40:24.339Z,81.50
2019-03-22T01:42:54.137Z,81.83
2019-03-22T01:45:23.807Z,81.84
2019-03-22T01:47:53.629Z,81.92
2019-03-22T01:50:23.315Z,81.64
2019-03-22T01:52:53.026Z,81.08
2019-03-22T01:55:22.747Z,80.62
2019-03-22T01:57:54.018Z,80.41
2019-03-22T02:00:24.050Z,80.81
2019-03-22T02:02:53.857Z,80.93
2019-03-22T02:05:23.650Z,80.73
2019-03-22T02:07:53.362Z,80.71
2019-03-22T02:10:23.084Z,80.35
2019-03-22T02:12:52.917Z,80.05
2019-03-22T02:15:22.734Z,80.21
2019-03-22T02:17:52.522Z,80.21
2019-03-22T02:20:22.397Z,80.04
2019-03-22T02:22:52.090Z,80.60
2019-03-22T02:25:21.882Z,79.50
2019-03-22T02:27:51.672Z,79.38
2019-03-22T02:30:21.456Z,79.88
2019-03-22T02:32:51.167Z,79.84
2019-03-22T02:35:29.218Z,79.41
2019-03-22T02:37:52.309Z,80.04
2019-03-22T02:40:22.068Z,79.78
2019-03-22T02:42:51.719Z,80.10
2019-03-22T02:45:21.399Z,80.30
2019-03-22T02:47:51.078Z,80.47
2019-03-22T02:50:20.834Z,80.70
2019-03-22T02:52:50.601Z,80.53
2019-03-22T02:55:20.518Z,79.95
2019-03-22T02:57:50.257Z,80.45
2019-03-22T03:00:20.542Z,80.10
2019-03-22T03:02:50.261Z,80.84
2019-03-22T03:05:20.089Z,80.71
2019-03-22T03:07:49.893Z,80.72
2019-03-22T03:10:19.762Z,81.07
2019-03-22T03:12:49.577Z,81.59
2019-03-22T03:15:19.655Z,81.91
2019-03-22T03:17:49.451Z,81.90
2019-03-22T03:20:20.307Z,81.26
2019-03-22T03:22:50.077Z,80.88
2019-03-22T03:25:19.966Z,81.19
2019-03-22T03:27:49.809Z,81.18
2019-03-22T03:30:21.264Z,81.75
2019-03-22T03:32:51.205Z,82.18
2019-03-22T03:35:21.047Z,82.53
2019-03-22T03:37:50.800Z,82.53
2019-03-22T03:40:20.856Z,82.61
2019-03-22T03:42:50.597Z,82.52
2019-03-22T03:45:38.878Z,82.27
2019-03-22T03:48:10.799Z,82.16
2019-03-22T03:50:40.737Z,81.71
2019-03-22T03:53:10.507Z,82.02
2019-03-22T03:55:40.153Z,82.17
2019-03-22T03:58:09.977Z,81.75
2019-03-22T04:00:40.006Z,81.95
2019-03-22T04:03:09.780Z,82.45
2019-03-22T04:05:39.549Z,82.76
2019-03-22T04:08:09.364Z,82.74
2019-03-22T04:10:39.125Z,82.77
2019-03-22T04:13:08.848Z,82.58
2019-03-22T04:15:38.808Z,81.98
2019-03-22T04:18:08.499Z,81.76
2019-03-22T04:20:38.282Z,81.81
2019-03-22T04:23:07.951Z,81.69
2019-03-22T04:25:37.637Z,81.68
2019-03-22T04:28:07.287Z,81.71
2019-03-22T04:30:36.979Z,82.26
2019-03-22T04:33:07.117Z,82.87
2019-03-22T04:35:37.017Z,82.82
2019-03-22T04:38:06.735Z,82.78
2019-03-22T04:40:36.631Z,83.31
2019-03-22T04:43:06.539Z,83.23
2019-03-22T04:45:38.316Z,82.83
2019-03-22T04:48:18.598Z,82.63
2019-03-22T04:50:51.815Z,82.00
2019-03-22T04:53:24.676Z,82.21
2019-03-22T04:55:58.742Z,82.34
2019-03-22T04:58:30.124Z,82.27
2019-03-22T05:01:01.585Z,82.53
2019-03-22T05:03:34.200Z,83.21
2019-03-22T05:06:06.290Z,83.40
2019-03-22T05:08:40.035Z,83.12
2019-03-22T05:11:13.197Z,82.92
2019-03-22T05:13:47.551Z,82.62
2019-03-22T05:16:21.616Z,82.47
2019-03-22T05:18:54.196Z,82.26
2019-03-22T05:21:28.124Z,82.19
2019-03-22T05:24:02.404Z,82.32
2019-03-22T05:26:36.220Z,82.16
2019-03-22T05:29:08.583Z,82.06
2019-03-22T05:32:05.070Z,82.02
2019-03-22T05:34:34.900Z,81.90
2019-03-22T05:37:05.239Z,81.79
2019-03-22T05:39:35.034Z,81.90
2019-03-22T05:42:04.981Z,81.80
2019-03-22T05:44:34.698Z,81.86
2019-03-22T05:47:04.432Z,81.75
2019-03-22T05:49:34.185Z,81.78
2019-03-22T05:52:03.934Z,81.70
2019-03-22T05:54:33.732Z,81.48
2019-03-22T05:57:12.812Z,81.31
2019-03-22T05:59:42.371Z,81.53
2019-03-22T06:02:06.434Z,81.68
2019-03-22T06:04:36.376Z,81.71
2019-03-22T06:07:06.632Z,81.52
2019-03-22T06:09:36.463Z,81.30
2019-03-22T06:12:06.279Z,81.35
2019-03-22T06:14:36.041Z,81.10
2019-03-22T06:17:05.680Z,80.98
2019-03-22T06:19:35.414Z,80.86
2019-03-22T06:22:05.272Z,80.50
2019-03-22T06:24:35.284Z,80.18
2019-03-22T06:27:05.049Z,80.21
2019-03-22T06:29:34.754Z,80.67
2019-03-22T06:32:04.496Z,80.58
2019-03-22T06:34:34.205Z,80.27
2019-03-22T06:37:03.946Z,79.80
2019-03-22T06:39:33.781Z,79.52
2019-03-22T06:42:03.500Z,79.47
2019-03-22T06:44:33.394Z,79.47
2019-03-22T06:47:03.138Z,79.34
2019-03-22T06:49:32.842Z,78.93
2019-03-22T06:52:02.518Z,78.47
2019-03-22T06:54:32.251Z,78.09
2019-03-22T06:57:02.160Z,78.32
2019-03-22T06:59:31.884Z,77.71
2019-03-22T07:02:01.720Z,77.08
2019-03-22T07:04:31.393Z,76.79
2019-03-22T07:07:01.277Z,76.24
2019-03-22T07:09:30.916Z,75.79
2019-03-22T07:12:00.604Z,74.66
2019-03-22T07:14:30.254Z,74.88
2019-03-22T07:16:59.976Z,74.99
2019-03-22T07:19:29.640Z,75.51
2019-03-22T07:21:59.473Z,75.58
2019-03-22T07:24:29.626Z,75.42
2019-03-22T07:26:59.543Z,74.86
2019-03-22T07:29:29.327Z,74.73
2019-03-22T07:31:59.064Z,74.13
2019-03-22T07:34:28.759Z,73.77
2019-03-22T07:36:58.504Z,73.18
2019-03-22T07:39:28.201Z,73.52
2019-03-22T07:41:57.916Z,73.12
2019-03-22T07:44:27.625Z,72.36
2019-03-22T07:46:57.262Z,70.60
2019-03-22T07:49:27.011Z,70.40
2019-03-22T07:51:56.647Z,70.16
2019-03-22T07:54:26.495Z,70.32
2019-03-22T07:56:56.336Z,69.92
2019-03-22T07:59:26.184Z,69.82
2019-03-22T08:01:55.822Z,69.79
2019-03-22T08:04:25.519Z,69.47
2019-03-22T08:06:55.268Z,68.71
2019-03-22T08:09:25.053Z,68.24
2019-03-22T08:11:54.791Z,68.25
2019-03-22T08:14:24.492Z,67.62
2019-03-22T08:16:54.353Z,67.00
2019-03-22T08:19:24.109Z,67.30
2019-03-22T08:21:53.926Z,67.04
2019-03-22T08:24:23.610Z,66.50
2019-03-22T08:26:53.406Z,66.35
2019-03-22T08:29:23.073Z,66.08
2019-03-22T08:31:52.813Z,64.98
2019-03-22T08:34:22.506Z,65.62
2019-03-22T08:36:52.291Z,65.08
2019-03-22T08:39:21.973Z,64.60
2019-03-22T08:41:51.760Z,64.28
2019-03-22T08:44:21.535Z,64.16
2019-03-22T08:46:51.439Z,63.86
2019-03-22T08:49:21.341Z,63.79
2019-03-22T08:51:51.487Z,63.44
2019-03-22T08:54:21.204Z,62.85
2019-03-22T08:56:50.935Z,62.42
2019-03-22T08:59:20.754Z,60.71
2019-03-22T09:01:50.569Z,60.69
2019-03-22T09:04:20.282Z,60.72
2019-03-22T09:06:50.076Z,60.80
2019-03-22T09:09:19.961Z,59.86
2019-03-22T09:11:49.596Z,59.51
2019-03-22T09:14:19.289Z,59.66
2019-03-22T09:16:48.956Z,59.48
2019-03-22T09:19:18.665Z,59.21
2019-03-22T09:21:48.404Z,58.73
2019-03-22T09:24:19.130Z,58.63
2019-03-22T09:26:48.921Z,57.09
2019-03-22T09:29:18.745Z,56.65
2019-03-22T09:31:48.447Z,55.69
2019-03-22T09:34:18.141Z,55.09
2019-03-22T09:36:47.906Z,55.01
2019-03-22T09:39:17.645Z,54.86
2019-03-22T09:41:47.626Z,54.90
2019-03-22T09:44:17.334Z,54.94
2019-03-22T09:46:47.186Z,54.93
2019-03-22T09:49:16.922Z,54.77
2019-03-22T09:51:46.631Z,54.67
2019-03-22T09:54:16.476Z,54.81
2019-03-22T09:56:47.482Z,55.01
2019-03-22T09:59:17.307Z,54.99
2019-03-22T10:01:47.027Z,54.84
2019-03-22T10:04:16.678Z,54.48
2019-03-22T10:06:46.388Z,54.13
2019-03-22T10:09:16.201Z,54.14
2019-03-22T10:11:45.901Z,53.96
2019-03-22T10:14:15.662Z,52.51
2019-03-22T10:16:47.649Z,52.85
2019-03-22T10:19:16.795Z,52.63
2019-03-22T10:21:46.581Z,52.28
2019-03-22T10:24:16.268Z,52.10
2019-03-22T10:26:46.131Z,51.59
2019-03-22T10:29:15.811Z,50.49
2019-03-22T10:31:45.479Z,50.60
2019-03-22T10:34:15.271Z,51.00
2019-03-22T10:36:44.968Z,50.08
2019-03-22T10:39:14.831Z,49.73
2019-03-22T10:41:44.533Z,49.34
2019-03-22T10:44:14.251Z,49.50
2019-03-22T10:46:44.003Z,49.68
2019-03-22T10:49:14.704Z,49.88
2019-03-22T10:51:56.182Z,49.53
2019-03-22T10:54:16.033Z,49.34
2019-03-22T10:56:45.857Z,49.74
2019-03-22T10:59:15.511Z,49.78
2019-03-22T11:01:52.222Z,49.06
2019-03-22T11:04:16.795Z,49.07
2019-03-22T11:06:46.467Z,48.98
2019-03-22T11:09:16.291Z,48.76
2019-03-22T11:11:46.076Z,48.69
2019-03-22T11:14:15.749Z,48.48
2019-03-22T11:16:45.468Z,48.13
2019-03-22T11:19:15.187Z,47.80
2019-03-22T11:21:45.906Z,48.16
2019-03-22T11:24:15.628Z,48.01
2019-03-22T11:26:45.329Z,47.53
2019-03-22T11:29:15.218Z,47.03
2019-03-22T11:31:45.032Z,47.15
2019-03-22T11:34:16.123Z,47.58
2019-03-22T11:36:45.973Z,47.64
2019-03-22T11:39:16.179Z,47.36
2019-03-22T11:41:46.022Z,47.30
2019-03-22T11:44:15.730Z,47.56
2019-03-22T11:46:45.478Z,47.01
2019-03-22T11:49:15.307Z,46.44
2019-03-22T11:51:45.048Z,45.49
2019-03-22T11:54:14.783Z,45.94
2019-03-22T11:56:44.539Z,46.09
2019-03-22T11:59:14.403Z,46.13
2019-03-22T12:01:44.100Z,45.49
2019-03-22T12:04:13.755Z,45.72
2019-03-22T12:06:45.827Z,45.55
2019-03-22T12:09:15.541Z,45.54
2019-03-22T12:11:45.488Z,45.29
2019-03-22T12:14:15.507Z,44.81
2019-03-22T12:16:45.236Z,45.11
2019-03-22T12:19:14.879Z,45.15
2019-03-22T12:21:44.651Z,44.97
2019-03-22T12:24:14.409Z,44.53
2019-03-22T12:26:44.123Z,44.67
2019-03-22T12:29:14.088Z,44.39
2019-03-22T12:31:43.813Z,44.14
2019-03-22T12:34:13.843Z,43.73
2019-03-22T12:36:43.490Z,43.63
2019-03-22T12:39:13.381Z,43.53
2019-03-22T12:41:43.155Z,43.65
2019-03-22T12:44:12.959Z,43.08
2019-03-22T12:46:42.636Z,43.36
2019-03-22T12:49:12.479Z,43.33
2019-03-22T12:51:42.207Z,43.37
2019-03-22T12:54:11.925Z,43.17
2019-03-22T12:56:41.699Z,42.95
2019-03-22T12:59:11.489Z,42.82
2019-03-22T13:01:41.309Z,41.71
2019-03-22T13:04:11.287Z,41.66
2019-03-22T13:06:41.038Z,41.54
2019-03-22T13:09:10.884Z,41.53
2019-03-22T13:11:40.657Z,41.61
2019-03-22T13:14:10.723Z,41.49
2019-03-22T13:16:40.567Z,41.48
2019-03-22T13:19:10.306Z,40.78
2019-03-22T13:21:40.060Z,40.58
2019-03-22T13:24:09.743Z,40.35
2019-03-22T13:26:39.641Z,39.96
2019-03-22T13:29:09.354Z,40.02
2019-03-22T13:31:39.345Z,39.87
2019-03-22T13:34:09.081Z,39.50
2019-03-22T13:36:38.786Z,39.13
2019-03-22T13:39:09.257Z,39.00
2019-03-22T13:41:39.042Z,39.01
2019-03-22T13:44:08.897Z,38.85
2019-03-22T13:46:40.596Z,38.96
2019-03-22T13:49:10.382Z,39.20
2019-03-22T13:51:40.139Z,39.11
2019-03-22T13:54:09.862Z,38.77
2019-03-22T13:56:39.635Z,39.13
2019-03-22T13:59:09.522Z,39.12
2019-03-22T14:01:39.272Z,38.67
2019-03-22T14:04:09.069Z,38.71
2019-03-22T14:06:38.825Z,38.63
2019-03-22T14:09:09.437Z,38.38
2019-03-22T14:11:39.119Z,38.33
2019-03-22T14:14:08.848Z,38.31
2019-03-22T14:16:38.536Z,38.06
2019-03-22T14:19:08.235Z,37.66
2019-03-22T14:21:37.936Z,37.26
2019-03-22T14:24:07.659Z,36.89
2019-03-22T14:26:37.356Z,36.86
2019-03-22T14:29:07.080Z,36.75
2019-03-22T14:31:36.976Z,36.30
2019-03-22T14:34:06.620Z,35.83
2019-03-22T14:36:36.468Z,34.99
2019-03-22T14:39:09.009Z,34.54
2019-03-22T14:41:39.096Z,34.34
2019-03-22T14:44:08.831Z,34.10
2019-03-22T14:46:38.484Z,33.79
2019-03-22T14:49:08.216Z,33.81
2019-03-22T14:51:37.876Z,33.10
2019-03-22T14:54:07.832Z,33.25
2019-03-22T14:56:37.582Z,32.93
2019-03-22T14:59:07.319Z,33.29
2019-03-22T15:01:37.027Z,33.66
2019-03-22T15:04:06.804Z,34.02
2019-03-22T15:06:36.536Z,33.94
2019-03-22T15:09:08.251Z,34.30
2019-03-22T15:11:37.898Z,35.08
2019-03-22T15:14:12.038Z,35.39
2019-03-22T15:16:50.354Z,35.22
2019-03-22T15:19:39.614Z,35.48
2019-03-22T15:22:14.937Z,35.58
2019-03-22T15:24:44.394Z,35.86
2019-03-22T15:27:31.750Z,35.84
2019-03-22T15:30:11.815Z,36.15
2019-03-22T15:32:48.799Z,35.87
2019-03-22T15:35:36.103Z,36.07
2019-03-22T15:38:05.959Z,35.91
2019-03-22T15:40:35.605Z,35.82
2019-03-22T15:43:05.551Z,35.50
2019-03-22T15:45:35.294Z,35.54
2019-03-22T15:48:05.610Z,35.34
2019-03-22T15:50:35.396Z,35.46
2019-03-22T15:53:05.319Z,35.45
2019-03-22T15:55:35.154Z,35.96
2019-03-22T15:58:05.096Z,35.91
2019-03-22T16:00:34.904Z,35.41
2019-03-22T16:03:05.145Z,35.68
2019-03-22T16:05:34.909Z,35.88
2019-03-22T16:08:04.827Z,35.71
2019-03-22T16:10:34.821Z,35.70
2019-03-22T16:13:04.677Z,35.38
2019-03-22T16:15:34.606Z,35.34
2019-03-22T16:18:04.671Z,35.58
2019-03-22T16:20:34.659Z,35.65
2019-03-22T16:23:04.648Z,35.92
2019-03-22T16:25:34.637Z,36.42
2019-03-22T16:28:05.236Z,36.30
2019-03-22T16:30:35.108Z,36.13
2019-03-22T16:33:05.214Z,35.92
2019-03-22T16:35:35.195Z,36.10
2019-03-22T16:38:05.098Z,36.08
2019-03-22T16:40:35.177Z,36.29
2019-03-22T16:43:05.142Z,35.88
2019-03-22T16:45:38.527Z,35.91
2019-03-22T16:48:08.902Z,35.80
2019-03-22T16:50:38.905Z,35.68
2019-03-22T16:53:09.027Z,35.78
2019-03-22T16:55:38.907Z,35.82
2019-03-22T16:58:08.915Z,35.94
2019-03-22T17:00:39.676Z,36.52
2019-03-22T17:03:09.752Z,36.62
2019-03-22T17:05:39.713Z,37.03
2019-03-22T17:08:09.622Z,37.29
2019-03-22T17:10:39.715Z,37.23
2019-03-22T17:13:09.759Z,37.42
2019-03-22T17:15:39.579Z,37.73
2019-03-22T17:18:09.515Z,37.83
2019-03-22T17:20:39.595Z,38.01
2019-03-22T17:23:09.656Z,38.41
2019-03-22T17:25:39.662Z,38.48
2019-03-22T17:28:09.670Z,38.57
2019-03-22T17:30:39.616Z,38.71
2019-03-22T17:35:55.081Z,39.18
2019-03-22T17:38:30.516Z,39.37
2019-03-22T17:41:00.295Z,39.65
2019-03-22T17:43:30.170Z,39.77
2019-03-22T17:46:01.059Z,39.90
2019-03-22T17:48:30.758Z,40.44
2019-03-22T17:51:00.656Z,40.54
2019-03-22T17:53:30.379Z,40.54
2019-03-22T17:56:00.099Z,40.83
2019-03-22T17:58:29.874Z,41.18
2019-03-22T18:00:59.707Z,41.39
2019-03-22T18:03:29.483Z,41.58
2019-03-22T18:05:59.395Z,41.91
2019-03-22T18:08:29.253Z,41.95
2019-03-22T18:10:59.135Z,42.16
2019-03-22T18:13:29.843Z,42.52
2019-03-22T18:15:59.616Z,42.65
2019-03-22T18:18:29.394Z,43.04
2019-03-22T18:20:59.153Z,43.85
2019-03-22T18:23:35.634Z,43.71
2019-03-22T18:26:00.583Z,43.67
2019-03-22T18:28:30.484Z,43.76
2019-03-22T18:31:00.308Z,43.98
2019-03-22T18:33:30.021Z,44.28
2019-03-22T18:35:59.833Z,44.29
2019-03-22T18:38:29.570Z,44.31
2019-03-22T18:40:59.515Z,44.58
2019-03-22T18:43:29.331Z,44.57
2019-03-22T18:45:59.387Z,44.54
2019-03-22T18:48:29.129Z,44.73
2019-03-22T18:50:58.835Z,45.00
2019-03-22T18:53:28.719Z,45.53
2019-03-22T18:55:58.665Z,45.88
2019-03-22T18:58:28.368Z,46.34
2019-03-22T19:00:58.190Z,46.87
2019-03-22T19:03:28.006Z,47.12
2019-03-22T19:05:57.718Z,47.34
2019-03-22T19:08:27.551Z,46.55
2019-03-22T19:10:57.314Z,46.25
2019-03-22T19:13:30.917Z,45.93
2019-03-22T19:15:59.081Z,45.93
2019-03-22T19:18:29.650Z,45.81
2019-03-22T19:20:59.432Z,45.66
2019-03-22T19:23:29.130Z,45.84
2019-03-22T19:25:58.954Z,45.99
2019-03-22T19:28:29.089Z,46.20
2019-03-22T19:30:58.984Z,46.64
2019-03-22T19:33:28.757Z,46.75
2019-03-22T19:35:58.554Z,47.02
2019-03-22T19:38:28.615Z,47.32
2019-03-22T19:40:58.394Z,47.43
2019-03-22T19:43:28.179Z,47.53
2019-03-22T19:45:58.362Z,47.74
2019-03-22T19:48:28.677Z,47.90
2019-03-22T19:50:58.449Z,48.15
2019-03-22T19:53:28.355Z,48.56
2019-03-22T19:55:58.137Z,48.96
2019-03-22T19:58:28.426Z,49.44
2019-03-22T20:00:58.341Z,49.86
2019-03-22T20:03:28.088Z,50.00
2019-03-22T20:05:57.785Z,50.16
2019-03-22T20:08:27.674Z,50.67
2019-03-22T20:10:57.502Z,50.95
2019-03-22T20:13:27.201Z,51.57
2019-03-22T20:15:56.937Z,51.61
2019-03-22T20:18:26.697Z,51.89
2019-03-22T20:20:56.432Z,51.98
2019-03-22T20:23:26.211Z,52.07
2019-03-22T20:25:56.036Z,52.00
2019-03-22T20:28:26.047Z,52.07
2019-03-22T20:30:55.940Z,52.35
2019-03-22T20:33:25.760Z,52.36
2019-03-22T20:35:55.612Z,52.45
2019-03-22T20:38:25.369Z,52.54
2019-03-22T20:40:55.188Z,52.42
2019-03-22T20:43:25.189Z,51.98
2019-03-22T20:45:55.000Z,51.84
2019-03-22T20:48:24.888Z,52.01
2019-03-22T20:50:54.659Z,52.34
2019-03-22T20:53:24.432Z,52.62
2019-03-22T20:55:54.373Z,52.74
2019-03-22T20:58:24.253Z,53.27
2019-03-22T21:00:54.009Z,53.74
2019-03-22T21:03:23.841Z,53.72
2019-03-22T21:05:53.739Z,53.69
2019-03-22T21:08:23.377Z,53.69
2019-03-22T21:10:53.180Z,54.01
2019-03-22T21:13:22.934Z,54.14
2019-03-22T21:15:52.705Z,54.27
2019-03-22T21:18:22.394Z,54.74
2019-03-22T21:20:52.343Z,54.52
2019-03-22T21:23:22.261Z,54.30
2019-03-22T21:25:52.522Z,54.13
2019-03-22T21:28:22.396Z,54.33
2019-03-22T21:30:52.277Z,54.44
2019-03-22T21:33:22.152Z,54.67
2019-03-22T21:35:52.038Z,54.95
2019-03-22T21:38:21.711Z,55.18
2019-03-22T21:40:51.468Z,55.21
2019-03-22T21:43:22.117Z,55.02
2019-03-22T21:45:51.969Z,54.84
2019-03-22T21:48:21.820Z,54.86
2019-03-22T21:50:51.692Z,54.91
2019-03-22T21:53:21.496Z,55.24
2019-03-22T21:55:51.374Z,55.25
2019-03-22T21:58:21.507Z,55.50
2019-03-22T22:00:51.326Z,55.66
2019-03-22T22:03:21.271Z,56.03
2019-03-22T22:05:51.207Z,56.50
2019-03-22T22:08:21.082Z,56.73
2019-03-22T22:10:59.417Z,56.87
2019-03-22T22:13:22.267Z,56.93
2019-03-22T22:15:52.032Z,56.51
2019-03-22T22:18:21.879Z,56.40
2019-03-22T22:20:51.593Z,56.87
2019-03-22T22:23:21.382Z,57.25
2019-03-22T22:25:51.120Z,57.90
2019-03-22T22:28:21.000Z,58.11
2019-03-22T22:30:51.193Z,57.99
2019-03-22T22:33:21.134Z,58.09
2019-03-22T22:35:58.563Z,58.59
2019-03-22T22:38:22.376Z,58.28
2019-03-22T22:40:52.089Z,58.27
2019-03-22T22:43:21.908Z,58.47
2019-03-22T22:45:51.742Z,57.91
2019-03-22T22:48:21.578Z,57.66
2019-03-22T22:50:51.264Z,58.42
2019-03-22T22:53:21.083Z,58.26
2019-03-22T22:55:50.893Z,57.74
2019-03-22T22:58:20.607Z,58.00
2019-03-22T23:00:50.685Z,56.52
2019-03-22T23:03:20.641Z,57.01
2019-03-22T23:05:50.409Z,57.07
2019-03-22T23:08:20.339Z,56.70
2019-03-22T23:10:50.074Z,56.73
2019-03-22T23:13:19.784Z,56.69
2019-03-22T23:15:49.536Z,56.86
2019-03-22T23:18:19.311Z,57.16
2019-03-22T23:20:49.049Z,57.25
2019-03-22T23:23:18.848Z,57.40
2019-03-22T23:25:48.709Z,57.52
2019-03-22T23:28:18.411Z,57.69
2019-03-22T23:30:48.068Z,57.75
2019-03-22T23:33:17.777Z,58.06
2019-03-22T23:35:47.565Z,57.99
2019-03-22T23:38:17.563Z,58.19
2019-03-22T23:40:47.344Z,58.41
2019-03-22T23:43:17.034Z,58.71
2019-03-22T23:45:46.778Z,58.83
2019-03-22T23:48:16.666Z,58.78
2019-03-22T23:50:46.358Z,58.94
2019-03-22T23:53:16.113Z,59.24
2019-03-22T23:55:45.914Z,59.10
2019-03-22T23:58:15.764Z,59.24
